sensor_id;sensor_type;location;lat;lon;timestamp;temperature;humidity
18309;DHT22;9280;50.276;18.650;2022-11-03T00:00:03;8.00;99.90
18309;DHT22;9280;50.276;18.650;2022-11-03T00:02:56;7.90;99.90
18309;DHT22;9280;50.276;18.650;2022-11-03T00:05:44;7.90;99.90
18309;DHT22;9280;50.276;18.650;2022-11-03T00:08:43;7.90;99.90
18309;DHT22;9280;50.276;18.650;2022-11-03T00:11:31;7.90;99.90
18309;DHT22;9280;50.276;18.650;2022-11-03T00:14:19;7.80;99.90
18309;DHT22;9280;50.276;18.650;2022-11-03T00:17:05;7.80;99.90
18309;DHT22;9280;50.276;18.650;2022-11-03T00:19:51;7.80;99.90
18309;DHT22;9280;50.276;18.650;2022-11-03T00:22:38;7.70;99.90
18309;DHT22;9280;50.276;18.650;2022-11-03T00:25:25;7.70;99.90
18309;DHT22;9280;50.276;18.650;2022-11-03T00:28:11;7.60;99.90
18309;DHT22;9280;50.276;18.650;2022-11-03T00:30:57;7.60;99.90
18309;DHT22;9280;50.276;18.650;2022-11-03T00:33:43;7.60;99.90
18309;DHT22;9280;50.276;18.650;2022-11-03T00:36:31;7.50;99.90
18309;DHT22;9280;50.276;18.650;2022-11-03T00:39:19;7.50;99.90
18309;DHT22;9280;50.276;18.650;2022-11-03T00:42:05;7.50;99.90
18309;DHT22;9280;50.276;18.650;2022-11-03T00:44:51;7.40;99.90
18309;DHT22;9280;50.276;18.650;2022-11-03T00:47:37;7.30;99.90
18309;DHT22;9280;50.276;18.650;2022-11-03T00:50:44;7.20;99.90
18309;DHT22;9280;50.276;18.650;2022-11-03T00:53:30;7.20;99.90
18309;DHT22;9280;50.276;18.650;2022-11-03T00:56:20;7.20;99.90
18309;DHT22;9280;50.276;18.650;2022-11-03T00:59:08;7.20;99.90
18309;DHT22;9280;50.276;18.650;2022-11-03T01:01:54;7.20;99.90
18309;DHT22;9280;50.276;18.650;2022-11-03T01:04:41;7.20;99.90
18309;DHT22;9280;50.276;18.650;2022-11-03T01:07:44;7.10;99.90
18309;DHT22;9280;50.276;18.650;2022-11-03T01:10:30;7.10;99.90
18309;DHT22;9280;50.276;18.650;2022-11-03T01:13:17;7.00;99.90
18309;DHT22;9280;50.276;18.650;2022-11-03T01:16:04;7.00;99.90
18309;DHT22;9280;50.276;18.650;2022-11-03T01:18:51;7.10;99.90
18309;DHT22;9280;50.276;18.650;2022-11-03T01:21:37;7.10;99.90
18309;DHT22;9280;50.276;18.650;2022-11-03T01:24:23;7.10;99.90
18309;DHT22;9280;50.276;18.650;2022-11-03T01:27:10;7.10;99.90
18309;DHT22;9280;50.276;18.650;2022-11-03T01:29:58;7.10;99.90
18309;DHT22;9280;50.276;18.650;2022-11-03T01:32:43;7.10;99.90
18309;DHT22;9280;50.276;18.650;2022-11-03T01:35:30;7.10;99.90
18309;DHT22;9280;50.276;18.650;2022-11-03T01:38:16;7.00;99.90
18309;DHT22;9280;50.276;18.650;2022-11-03T01:41:04;7.00;99.90
18309;DHT22;9280;50.276;18.650;2022-11-03T01:44:18;7.00;99.90
18309;DHT22;9280;50.276;18.650;2022-11-03T01:47:14;6.90;99.90
18309;DHT22;9280;50.276;18.650;2022-11-03T01:50:05;6.90;99.90
18309;DHT22;9280;50.276;18.650;2022-11-03T01:52:55;6.90;99.90
18309;DHT22;9280;50.276;18.650;2022-11-03T01:55:44;7.00;99.90
18309;DHT22;9280;50.276;18.650;2022-11-03T01:58:34;7.00;99.90
18309;DHT22;9280;50.276;18.650;2022-11-03T02:01:21;7.00;99.90
18309;DHT22;9280;50.276;18.650;2022-11-03T02:04:13;7.00;99.90
18309;DHT22;9280;50.276;18.650;2022-11-03T02:07:05;7.00;99.90
18309;DHT22;9280;50.276;18.650;2022-11-03T02:09:52;7.00;99.90
18309;DHT22;9280;50.276;18.650;2022-11-03T02:12:38;7.00;99.90
18309;DHT22;9280;50.276;18.650;2022-11-03T02:15:25;6.90;99.90
18309;DHT22;9280;50.276;18.650;2022-11-03T02:18:12;6.90;99.90
18309;DHT22;9280;50.276;18.650;2022-11-03T02:21:06;6.80;99.90
18309;DHT22;9280;50.276;18.650;2022-11-03T02:23:59;6.80;99.90
18309;DHT22;9280;50.276;18.650;2022-11-03T02:26:49;6.80;99.90
18309;DHT22;9280;50.276;18.650;2022-11-03T02:29:38;6.70;99.90
18309;DHT22;9280;50.276;18.650;2022-11-03T02:32:26;6.70;99.90
18309;DHT22;9280;50.276;18.650;2022-11-03T02:35:19;6.70;99.90
18309;DHT22;9280;50.276;18.650;2022-11-03T02:38:09;6.60;99.90
18309;DHT22;9280;50.276;18.650;2022-11-03T02:40:59;6.50;99.90
18309;DHT22;9280;50.276;18.650;2022-11-03T02:43:47;6.40;99.90
18309;DHT22;9280;50.276;18.650;2022-11-03T02:46:35;6.30;99.90
18309;DHT22;9280;50.276;18.650;2022-11-03T02:49:22;6.20;99.90
18309;DHT22;9280;50.276;18.650;2022-11-03T02:52:33;6.20;99.90
18309;DHT22;9280;50.276;18.650;2022-11-03T02:55:28;6.30;99.90
18309;DHT22;9280;50.276;18.650;2022-11-03T02:58:19;6.50;99.90
18309;DHT22;9280;50.276;18.650;2022-11-03T03:01:12;6.60;99.90
18309;DHT22;9280;50.276;18.650;2022-11-03T03:04:05;6.90;99.90
18309;DHT22;9280;50.276;18.650;2022-11-03T03:06:55;7.00;99.90
18309;DHT22;9280;50.276;18.650;2022-11-03T03:09:45;7.00;99.90
18309;DHT22;9280;50.276;18.650;2022-11-03T03:12:34;7.00;99.90
18309;DHT22;9280;50.276;18.650;2022-11-03T03:15:27;7.00;99.90
18309;DHT22;9280;50.276;18.650;2022-11-03T03:18:25;7.00;99.90
18309;DHT22;9280;50.276;18.650;2022-11-03T03:21:16;7.10;99.90
18309;DHT22;9280;50.276;18.650;2022-11-03T03:24:07;7.10;99.90
18309;DHT22;9280;50.276;18.650;2022-11-03T03:26:55;7.00;99.90
18309;DHT22;9280;50.276;18.650;2022-11-03T03:29:46;6.80;99.90
18309;DHT22;9280;50.276;18.650;2022-11-03T03:32:37;6.70;99.90
18309;DHT22;9280;50.276;18.650;2022-11-03T03:35:27;6.60;99.90
18309;DHT22;9280;50.276;18.650;2022-11-03T03:38:16;6.50;99.90
18309;DHT22;9280;50.276;18.650;2022-11-03T03:41:03;6.50;99.90
18309;DHT22;9280;50.276;18.650;2022-11-03T03:43:51;6.50;99.90
18309;DHT22;9280;50.276;18.650;2022-11-03T03:46:41;6.50;99.90
18309;DHT22;9280;50.276;18.650;2022-11-03T03:49:28;6.50;99.90
18309;DHT22;9280;50.276;18.650;2022-11-03T03:52:16;6.30;99.90
18309;DHT22;9280;50.276;18.650;2022-11-03T03:55:03;6.40;99.90
18309;DHT22;9280;50.276;18.650;2022-11-03T03:57:50;6.40;99.90
18309;DHT22;9280;50.276;18.650;2022-11-03T04:00:37;6.40;99.90
18309;DHT22;9280;50.276;18.650;2022-11-03T04:03:25;6.30;99.90
18309;DHT22;9280;50.276;18.650;2022-11-03T04:06:12;6.20;99.90
18309;DHT22;9280;50.276;18.650;2022-11-03T04:09:00;6.20;99.90
18309;DHT22;9280;50.276;18.650;2022-11-03T04:11:46;6.10;99.90
18309;DHT22;9280;50.276;18.650;2022-11-03T04:14:49;6.00;99.90
18309;DHT22;9280;50.276;18.650;2022-11-03T04:17:53;5.80;99.90
18309;DHT22;9280;50.276;18.650;2022-11-03T04:20:56;5.70;99.90
18309;DHT22;9280;50.276;18.650;2022-11-03T04:24:04;5.60;99.90
18309;DHT22;9280;50.276;18.650;2022-11-03T04:26:51;5.40;99.90
18309;DHT22;9280;50.276;18.650;2022-11-03T04:29:37;5.50;99.90
18309;DHT22;9280;50.276;18.650;2022-11-03T04:32:23;5.50;99.90
18309;DHT22;9280;50.276;18.650;2022-11-03T04:35:16;5.50;99.90
18309;DHT22;9280;50.276;18.650;2022-11-03T04:38:04;5.50;99.90
18309;DHT22;9280;50.276;18.650;2022-11-03T04:40:57;5.50;99.90
18309;DHT22;9280;50.276;18.650;2022-11-03T04:43:44;5.50;99.90
18309;DHT22;9280;50.276;18.650;2022-11-03T04:46:31;5.40;99.90
18309;DHT22;9280;50.276;18.650;2022-11-03T04:49:21;5.40;99.90
18309;DHT22;9280;50.276;18.650;2022-11-03T04:52:12;5.50;99.90
18309;DHT22;9280;50.276;18.650;2022-11-03T04:54:59;5.50;99.90
18309;DHT22;9280;50.276;18.650;2022-11-03T04:57:47;5.30;99.90
18309;DHT22;9280;50.276;18.650;2022-11-03T05:00:34;5.30;99.90
18309;DHT22;9280;50.276;18.650;2022-11-03T05:03:23;5.30;99.90
18309;DHT22;9280;50.276;18.650;2022-11-03T05:06:12;5.40;99.90
18309;DHT22;9280;50.276;18.650;2022-11-03T05:09:01;5.40;99.90
18309;DHT22;9280;50.276;18.650;2022-11-03T05:11:50;5.40;99.90
18309;DHT22;9280;50.276;18.650;2022-11-03T05:14:37;5.40;99.90
18309;DHT22;9280;50.276;18.650;2022-11-03T05:17:25;5.40;99.90
18309;DHT22;9280;50.276;18.650;2022-11-03T05:20:25;5.50;99.90
18309;DHT22;9280;50.276;18.650;2022-11-03T05:23:13;5.60;99.90
18309;DHT22;9280;50.276;18.650;2022-11-03T05:26:00;5.60;99.90
18309;DHT22;9280;50.276;18.650;2022-11-03T05:28:48;5.70;99.90
18309;DHT22;9280;50.276;18.650;2022-11-03T05:31:37;5.70;99.90
18309;DHT22;9280;50.276;18.650;2022-11-03T05:34:32;5.70;99.90
18309;DHT22;9280;50.276;18.650;2022-11-03T05:37:24;5.60;99.90
18309;DHT22;9280;50.276;18.650;2022-11-03T05:40:18;5.50;99.90
18309;DHT22;9280;50.276;18.650;2022-11-03T05:43:09;5.50;99.90
18309;DHT22;9280;50.276;18.650;2022-11-03T05:46:00;5.40;99.90
18309;DHT22;9280;50.276;18.650;2022-11-03T05:48:49;5.40;99.90
18309;DHT22;9280;50.276;18.650;2022-11-03T05:51:37;5.40;99.90
18309;DHT22;9280;50.276;18.650;2022-11-03T05:54:26;5.50;99.90
18309;DHT22;9280;50.276;18.650;2022-11-03T05:57:14;5.50;99.90
18309;DHT22;9280;50.276;18.650;2022-11-03T06:00:06;5.60;99.90
18309;DHT22;9280;50.276;18.650;2022-11-03T06:02:57;5.70;99.90
18309;DHT22;9280;50.276;18.650;2022-11-03T06:05:45;5.80;99.90
18309;DHT22;9280;50.276;18.650;2022-11-03T06:08:34;5.90;99.90
18309;DHT22;9280;50.276;18.650;2022-11-03T06:11:25;5.90;99.90
18309;DHT22;9280;50.276;18.650;2022-11-03T06:14:14;5.80;99.90
18309;DHT22;9280;50.276;18.650;2022-11-03T06:17:04;5.80;99.90
18309;DHT22;9280;50.276;18.650;2022-11-03T06:19:53;5.80;99.90
18309;DHT22;9280;50.276;18.650;2022-11-03T06:22:40;5.80;99.90
18309;DHT22;9280;50.276;18.650;2022-11-03T06:25:31;5.80;99.90
18309;DHT22;9280;50.276;18.650;2022-11-03T06:28:20;5.80;99.90
18309;DHT22;9280;50.276;18.650;2022-11-03T06:31:16;5.80;99.90
18309;DHT22;9280;50.276;18.650;2022-11-03T06:34:17;5.80;99.90
18309;DHT22;9280;50.276;18.650;2022-11-03T06:37:16;5.80;99.90
18309;DHT22;9280;50.276;18.650;2022-11-03T06:40:32;5.90;99.90
18309;DHT22;9280;50.276;18.650;2022-11-03T06:43:21;5.90;99.90
18309;DHT22;9280;50.276;18.650;2022-11-03T06:46:14;5.90;99.90
18309;DHT22;9280;50.276;18.650;2022-11-03T06:49:24;6.00;99.90
18309;DHT22;9280;50.276;18.650;2022-11-03T06:52:23;6.10;99.90
18309;DHT22;9280;50.276;18.650;2022-11-03T06:55:21;6.20;99.90
18309;DHT22;9280;50.276;18.650;2022-11-03T06:58:14;6.20;99.90
18309;DHT22;9280;50.276;18.650;2022-11-03T07:01:07;6.30;99.90
18309;DHT22;9280;50.276;18.650;2022-11-03T07:03:57;6.50;99.90
18309;DHT22;9280;50.276;18.650;2022-11-03T07:06:45;6.60;99.90
18309;DHT22;9280;50.276;18.650;2022-11-03T07:09:31;6.60;99.90
18309;DHT22;9280;50.276;18.650;2022-11-03T07:12:19;6.70;99.90
18309;DHT22;9280;50.276;18.650;2022-11-03T07:15:18;6.70;99.90
18309;DHT22;9280;50.276;18.650;2022-11-03T07:18:15;6.70;99.90
18309;DHT22;9280;50.276;18.650;2022-11-03T07:21:06;6.70;99.90
18309;DHT22;9280;50.276;18.650;2022-11-03T07:23:59;6.80;99.90
18309;DHT22;9280;50.276;18.650;2022-11-03T07:26:46;6.90;99.90
18309;DHT22;9280;50.276;18.650;2022-11-03T07:29:34;6.90;99.90
18309;DHT22;9280;50.276;18.650;2022-11-03T07:32:23;6.90;99.90
18309;DHT22;9280;50.276;18.650;2022-11-03T07:35:23;7.00;99.90
18309;DHT22;9280;50.276;18.650;2022-11-03T07:38:12;7.10;99.90
18309;DHT22;9280;50.276;18.650;2022-11-03T07:40:59;7.20;99.90
18309;DHT22;9280;50.276;18.650;2022-11-03T07:43:48;7.20;99.90
18309;DHT22;9280;50.276;18.650;2022-11-03T07:46:37;7.20;99.90
18309;DHT22;9280;50.276;18.650;2022-11-03T07:49:25;7.30;99.90
18309;DHT22;9280;50.276;18.650;2022-11-03T07:52:13;7.40;99.90
18309;DHT22;9280;50.276;18.650;2022-11-03T07:54:59;7.50;99.90
18309;DHT22;9280;50.276;18.650;2022-11-03T07:57:45;7.60;99.90
18309;DHT22;9280;50.276;18.650;2022-11-03T08:00:33;7.70;99.90
18309;DHT22;9280;50.276;18.650;2022-11-03T08:03:38;7.80;99.90
18309;DHT22;9280;50.276;18.650;2022-11-03T08:06:25;8.00;99.90
18309;DHT22;9280;50.276;18.650;2022-11-03T08:09:12;8.10;99.90
18309;DHT22;9280;50.276;18.650;2022-11-03T08:11:58;8.20;99.90
18309;DHT22;9280;50.276;18.650;2022-11-03T08:14:44;8.40;99.90
18309;DHT22;9280;50.276;18.650;2022-11-03T08:17:30;8.60;99.90
18309;DHT22;9280;50.276;18.650;2022-11-03T08:20:17;8.70;99.90
18309;DHT22;9280;50.276;18.650;2022-11-03T08:23:03;8.90;99.90
18309;DHT22;9280;50.276;18.650;2022-11-03T08:25:49;9.00;99.90
18309;DHT22;9280;50.276;18.650;2022-11-03T08:28:35;9.20;99.90
18309;DHT22;9280;50.276;18.650;2022-11-03T08:31:21;9.30;99.90
18309;DHT22;9280;50.276;18.650;2022-11-03T08:34:07;9.40;99.90
18309;DHT22;9280;50.276;18.650;2022-11-03T08:36:54;9.50;99.90
18309;DHT22;9280;50.276;18.650;2022-11-03T08:39:40;9.60;99.90
18309;DHT22;9280;50.276;18.650;2022-11-03T08:42:25;9.70;99.90
18309;DHT22;9280;50.276;18.650;2022-11-03T08:45:12;9.80;99.90
18309;DHT22;9280;50.276;18.650;2022-11-03T08:47:57;9.90;99.90
18309;DHT22;9280;50.276;18.650;2022-11-03T08:50:43;10.00;99.90
18309;DHT22;9280;50.276;18.650;2022-11-03T08:53:31;10.00;99.90
18309;DHT22;9280;50.276;18.650;2022-11-03T08:56:18;10.10;99.90
18309;DHT22;9280;50.276;18.650;2022-11-03T08:59:07;10.20;99.90
18309;DHT22;9280;50.276;18.650;2022-11-03T09:01:53;10.20;99.90
18309;DHT22;9280;50.276;18.650;2022-11-03T09:04:40;10.30;99.90
18309;DHT22;9280;50.276;18.650;2022-11-03T09:07:26;10.30;99.90
18309;DHT22;9280;50.276;18.650;2022-11-03T09:10:14;10.40;99.90
18309;DHT22;9280;50.276;18.650;2022-11-03T09:13:00;10.50;99.90
18309;DHT22;9280;50.276;18.650;2022-11-03T09:15:46;10.60;99.90
18309;DHT22;9280;50.276;18.650;2022-11-03T09:18:34;10.70;99.90
18309;DHT22;9280;50.276;18.650;2022-11-03T09:21:21;10.90;99.90
18309;DHT22;9280;50.276;18.650;2022-11-03T09:24:07;11.00;99.90
18309;DHT22;9280;50.276;18.650;2022-11-03T09:26:55;11.00;99.90
18309;DHT22;9280;50.276;18.650;2022-11-03T09:29:41;11.10;99.90
18309;DHT22;9280;50.276;18.650;2022-11-03T09:32:27;11.20;99.90
18309;DHT22;9280;50.276;18.650;2022-11-03T09:35:16;11.30;99.90
18309;DHT22;9280;50.276;18.650;2022-11-03T09:38:02;11.40;99.90
18309;DHT22;9280;50.276;18.650;2022-11-03T09:40:48;11.50;99.90
18309;DHT22;9280;50.276;18.650;2022-11-03T09:43:35;11.60;99.90
18309;DHT22;9280;50.276;18.650;2022-11-03T09:46:28;11.70;99.90
18309;DHT22;9280;50.276;18.650;2022-11-03T09:49:29;11.80;99.90
18309;DHT22;9280;50.276;18.650;2022-11-03T09:52:21;11.90;99.90
18309;DHT22;9280;50.276;18.650;2022-11-03T09:55:13;11.90;99.90
18309;DHT22;9280;50.276;18.650;2022-11-03T09:58:14;12.00;99.90
18309;DHT22;9280;50.276;18.650;2022-11-03T10:01:02;12.10;99.90
18309;DHT22;9280;50.276;18.650;2022-11-03T10:03:48;12.20;99.90
18309;DHT22;9280;50.276;18.650;2022-11-03T10:06:37;12.20;99.90
18309;DHT22;9280;50.276;18.650;2022-11-03T10:09:24;12.30;99.90
18309;DHT22;9280;50.276;18.650;2022-11-03T10:12:12;12.40;99.90
18309;DHT22;9280;50.276;18.650;2022-11-03T10:14:58;12.50;99.90
18309;DHT22;9280;50.276;18.650;2022-11-03T10:17:46;12.60;99.90
18309;DHT22;9280;50.276;18.650;2022-11-03T10:20:34;12.60;99.90
18309;DHT22;9280;50.276;18.650;2022-11-03T10:23:19;12.70;99.90
18309;DHT22;9280;50.276;18.650;2022-11-03T10:26:10;12.80;99.90
18309;DHT22;9280;50.276;18.650;2022-11-03T10:28:57;12.90;99.90
18309;DHT22;9280;50.276;18.650;2022-11-03T10:31:44;13.00;99.90
18309;DHT22;9280;50.276;18.650;2022-11-03T10:34:36;13.10;99.90
18309;DHT22;9280;50.276;18.650;2022-11-03T10:37:23;13.20;99.90
18309;DHT22;9280;50.276;18.650;2022-11-03T10:40:32;13.30;99.90
18309;DHT22;9280;50.276;18.650;2022-11-03T10:43:19;13.30;99.90
18309;DHT22;9280;50.276;18.650;2022-11-03T10:46:16;13.40;99.90
18309;DHT22;9280;50.276;18.650;2022-11-03T10:49:04;13.50;99.90
18309;DHT22;9280;50.276;18.650;2022-11-03T10:52:05;13.70;99.90
18309;DHT22;9280;50.276;18.650;2022-11-03T10:54:58;13.90;99.90
18309;DHT22;9280;50.276;18.650;2022-11-03T10:57:45;14.10;99.90
18309;DHT22;9280;50.276;18.650;2022-11-03T11:00:31;14.20;99.90
18309;DHT22;9280;50.276;18.650;2022-11-03T11:03:16;14.40;98.90
18309;DHT22;9280;50.276;18.650;2022-11-03T11:06:03;14.40;97.30
18309;DHT22;9280;50.276;18.650;2022-11-03T11:08:51;14.70;97.30
18309;DHT22;9280;50.276;18.650;2022-11-03T11:11:59;14.80;95.20
18309;DHT22;9280;50.276;18.650;2022-11-03T11:14:56;15.00;94.10
18309;DHT22;9280;50.276;18.650;2022-11-03T11:17:46;15.00;90.40
18309;DHT22;9280;50.276;18.650;2022-11-03T11:20:38;15.10;88.70
18309;DHT22;9280;50.276;18.650;2022-11-03T11:23:49;15.30;88.40
18309;DHT22;9280;50.276;18.650;2022-11-03T11:26:37;15.40;85.80
18309;DHT22;9280;50.276;18.650;2022-11-03T11:29:41;15.60;85.80
18309;DHT22;9280;50.276;18.650;2022-11-03T11:32:55;15.80;85.20
18309;DHT22;9280;50.276;18.650;2022-11-03T11:36:01;16.10;81.30
18309;DHT22;9280;50.276;18.650;2022-11-03T11:39:00;16.20;77.80
18309;DHT22;9280;50.276;18.650;2022-11-03T11:42:10;16.50;75.10
18309;DHT22;9280;50.276;18.650;2022-11-03T11:45:01;16.60;78.10
18309;DHT22;9280;50.276;18.650;2022-11-03T11:47:50;16.80;77.90
18309;DHT22;9280;50.276;18.650;2022-11-03T11:50:36;17.00;78.80
18309;DHT22;9280;50.276;18.650;2022-11-03T11:53:22;17.20;78.60
18309;DHT22;9280;50.276;18.650;2022-11-03T11:56:11;17.40;78.20
18309;DHT22;9280;50.276;18.650;2022-11-03T11:58:58;19.60;73.30
18309;DHT22;9280;50.276;18.650;2022-11-03T12:01:48;22.70;61.30
18309;DHT22;9280;50.276;18.650;2022-11-03T12:04:35;25.40;49.60
18309;DHT22;9280;50.276;18.650;2022-11-03T12:07:31;27.10;43.70
18309;DHT22;9280;50.276;18.650;2022-11-03T12:10:19;28.80;37.30
18309;DHT22;9280;50.276;18.650;2022-11-03T12:13:35;29.00;34.70
18309;DHT22;9280;50.276;18.650;2022-11-03T12:16:31;30.20;31.00
18309;DHT22;9280;50.276;18.650;2022-11-03T12:19:38;30.30;29.80
18309;DHT22;9280;50.276;18.650;2022-11-03T12:22:40;31.00;28.70
18309;DHT22;9280;50.276;18.650;2022-11-03T12:25:35;31.60;28.10
18309;DHT22;9280;50.276;18.650;2022-11-03T12:28:30;32.50;26.80
18309;DHT22;9280;50.276;18.650;2022-11-03T12:31:18;32.20;26.10
18309;DHT22;9280;50.276;18.650;2022-11-03T12:34:07;32.90;26.40
18309;DHT22;9280;50.276;18.650;2022-11-03T12:36:54;33.20;25.00
18309;DHT22;9280;50.276;18.650;2022-11-03T12:39:40;33.20;25.10
18309;DHT22;9280;50.276;18.650;2022-11-03T12:42:27;32.00;25.10
18309;DHT22;9280;50.276;18.650;2022-11-03T12:45:13;31.30;25.80
18309;DHT22;9280;50.276;18.650;2022-11-03T12:48:00;32.10;25.70
18309;DHT22;9280;50.276;18.650;2022-11-03T12:50:47;32.10;25.30
18309;DHT22;9280;50.276;18.650;2022-11-03T12:53:33;31.60;25.90
18309;DHT22;9280;50.276;18.650;2022-11-03T12:56:19;31.50;25.70
18309;DHT22;9280;50.276;18.650;2022-11-03T12:59:05;31.90;25.40
18309;DHT22;9280;50.276;18.650;2022-11-03T13:01:51;32.10;25.00
18309;DHT22;9280;50.276;18.650;2022-11-03T13:04:39;31.60;24.60
18309;DHT22;9280;50.276;18.650;2022-11-03T13:07:25;31.80;25.00
18309;DHT22;9280;50.276;18.650;2022-11-03T13:10:11;31.70;24.30
18309;DHT22;9280;50.276;18.650;2022-11-03T13:12:57;31.70;24.30
18309;DHT22;9280;50.276;18.650;2022-11-03T13:15:43;31.60;24.10
18309;DHT22;9280;50.276;18.650;2022-11-03T13:18:29;31.30;24.40
18309;DHT22;9280;50.276;18.650;2022-11-03T13:21:17;30.00;24.80
18309;DHT22;9280;50.276;18.650;2022-11-03T13:24:03;29.20;25.80
18309;DHT22;9280;50.276;18.650;2022-11-03T13:26:50;28.70;27.10
18309;DHT22;9280;50.276;18.650;2022-11-03T13:29:37;28.30;29.10
18309;DHT22;9280;50.276;18.650;2022-11-03T13:32:23;26.50;29.00
18309;DHT22;9280;50.276;18.650;2022-11-03T13:35:09;24.50;31.50
18309;DHT22;9280;50.276;18.650;2022-11-03T13:37:56;22.50;33.90
18309;DHT22;9280;50.276;18.650;2022-11-03T13:40:42;21.10;36.30
18309;DHT22;9280;50.276;18.650;2022-11-03T13:43:28;20.20;39.00
18309;DHT22;9280;50.276;18.650;2022-11-03T13:46:15;20.00;40.00
18309;DHT22;9280;50.276;18.650;2022-11-03T13:49:01;20.10;40.10
18309;DHT22;9280;50.276;18.650;2022-11-03T13:51:47;19.40;40.80
18309;DHT22;9280;50.276;18.650;2022-11-03T13:54:35;19.10;40.50
18309;DHT22;9280;50.276;18.650;2022-11-03T13:57:22;18.60;41.60
18309;DHT22;9280;50.276;18.650;2022-11-03T14:00:12;18.20;42.40
18309;DHT22;9280;50.276;18.650;2022-11-03T14:02:59;17.60;43.70
18309;DHT22;9280;50.276;18.650;2022-11-03T14:05:45;17.10;45.30
18309;DHT22;9280;50.276;18.650;2022-11-03T14:08:31;16.70;46.30
18309;DHT22;9280;50.276;18.650;2022-11-03T14:11:18;16.20;48.20
18309;DHT22;9280;50.276;18.650;2022-11-03T14:14:22;15.90;49.10
18309;DHT22;9280;50.276;18.650;2022-11-03T14:17:08;15.60;50.50
18309;DHT22;9280;50.276;18.650;2022-11-03T14:19:54;15.30;51.60
18309;DHT22;9280;50.276;18.650;2022-11-03T14:22:41;15.10;52.60
18309;DHT22;9280;50.276;18.650;2022-11-03T14:25:26;14.90;53.60
18309;DHT22;9280;50.276;18.650;2022-11-03T14:28:14;14.70;54.50
18309;DHT22;9280;50.276;18.650;2022-11-03T14:31:01;14.50;55.10
18309;DHT22;9280;50.276;18.650;2022-11-03T14:33:49;14.40;56.20
18309;DHT22;9280;50.276;18.650;2022-11-03T14:36:35;14.30;57.10
18309;DHT22;9280;50.276;18.650;2022-11-03T14:39:21;14.10;58.20
18309;DHT22;9280;50.276;18.650;2022-11-03T14:42:09;14.00;58.70
18309;DHT22;9280;50.276;18.650;2022-11-03T14:45:00;13.90;59.20
18309;DHT22;9280;50.276;18.650;2022-11-03T14:47:46;14.10;59.90
18309;DHT22;9280;50.276;18.650;2022-11-03T14:50:32;14.20;60.20
18309;DHT22;9280;50.276;18.650;2022-11-03T14:53:18;14.20;60.80
18309;DHT22;9280;50.276;18.650;2022-11-03T14:56:05;14.10;61.30
18309;DHT22;9280;50.276;18.650;2022-11-03T14:58:51;13.90;62.40
18309;DHT22;9280;50.276;18.650;2022-11-03T15:01:39;13.80;63.60
18309;DHT22;9280;50.276;18.650;2022-11-03T15:04:25;13.80;64.60
18309;DHT22;9280;50.276;18.650;2022-11-03T15:07:11;14.00;65.10
18309;DHT22;9280;50.276;18.650;2022-11-03T15:09:58;14.00;65.40
18309;DHT22;9280;50.276;18.650;2022-11-03T15:12:43;13.80;66.80
18309;DHT22;9280;50.276;18.650;2022-11-03T15:15:30;13.60;68.10
18309;DHT22;9280;50.276;18.650;2022-11-03T15:18:17;13.40;70.30
18309;DHT22;9280;50.276;18.650;2022-11-03T15:21:03;13.20;72.80
18309;DHT22;9280;50.276;18.650;2022-11-03T15:23:49;13.00;74.20
18309;DHT22;9280;50.276;18.650;2022-11-03T15:26:35;12.90;76.30
18309;DHT22;9280;50.276;18.650;2022-11-03T15:29:22;12.70;79.50
18309;DHT22;9280;50.276;18.650;2022-11-03T15:32:08;12.60;82.40
18309;DHT22;9280;50.276;18.650;2022-11-03T15:34:56;12.50;84.00
18309;DHT22;9280;50.276;18.650;2022-11-03T15:37:42;12.30;86.00
18309;DHT22;9280;50.276;18.650;2022-11-03T15:40:28;12.10;89.50
18309;DHT22;9280;50.276;18.650;2022-11-03T15:43:13;12.00;90.60
18309;DHT22;9280;50.276;18.650;2022-11-03T15:46:00;11.80;92.10
18309;DHT22;9280;50.276;18.650;2022-11-03T15:48:46;11.70;93.70
18309;DHT22;9280;50.276;18.650;2022-11-03T15:51:34;11.50;94.90
18309;DHT22;9280;50.276;18.650;2022-11-03T15:54:20;11.30;95.80
18309;DHT22;9280;50.276;18.650;2022-11-03T15:57:06;11.20;96.90
18309;DHT22;9280;50.276;18.650;2022-11-03T15:59:53;11.10;98.90
18309;DHT22;9280;50.276;18.650;2022-11-03T16:02:39;11.00;99.90
18309;DHT22;9280;50.276;18.650;2022-11-03T16:05:26;11.00;99.90
18309;DHT22;9280;50.276;18.650;2022-11-03T16:08:13;11.00;99.90
18309;DHT22;9280;50.276;18.650;2022-11-03T16:11:00;10.90;99.90
18309;DHT22;9280;50.276;18.650;2022-11-03T16:13:46;10.90;99.90
18309;DHT22;9280;50.276;18.650;2022-11-03T16:16:32;10.90;99.90
18309;DHT22;9280;50.276;18.650;2022-11-03T16:19:18;10.80;99.90
18309;DHT22;9280;50.276;18.650;2022-11-03T16:22:04;10.80;99.90
18309;DHT22;9280;50.276;18.650;2022-11-03T16:24:52;10.80;99.90
18309;DHT22;9280;50.276;18.650;2022-11-03T16:27:38;10.80;99.90
18309;DHT22;9280;50.276;18.650;2022-11-03T16:30:24;10.70;99.90
18309;DHT22;9280;50.276;18.650;2022-11-03T16:33:10;10.60;99.90
18309;DHT22;9280;50.276;18.650;2022-11-03T16:35:57;10.60;99.90
18309;DHT22;9280;50.276;18.650;2022-11-03T16:38:43;10.50;99.90
18309;DHT22;9280;50.276;18.650;2022-11-03T16:41:30;10.50;99.90
18309;DHT22;9280;50.276;18.650;2022-11-03T16:44:16;10.40;99.90
18309;DHT22;9280;50.276;18.650;2022-11-03T16:47:02;10.40;99.90
18309;DHT22;9280;50.276;18.650;2022-11-03T16:49:50;10.40;99.90
18309;DHT22;9280;50.276;18.650;2022-11-03T16:52:36;10.40;99.90
18309;DHT22;9280;50.276;18.650;2022-11-03T16:55:22;10.40;99.90
18309;DHT22;9280;50.276;18.650;2022-11-03T16:58:10;10.40;99.90
18309;DHT22;9280;50.276;18.650;2022-11-03T17:00:56;10.40;99.90
18309;DHT22;9280;50.276;18.650;2022-11-03T17:03:42;10.40;99.90
18309;DHT22;9280;50.276;18.650;2022-11-03T17:06:29;10.50;99.90
18309;DHT22;9280;50.276;18.650;2022-11-03T17:09:15;10.60;99.90
18309;DHT22;9280;50.276;18.650;2022-11-03T17:12:01;10.70;99.90
18309;DHT22;9280;50.276;18.650;2022-11-03T17:14:49;10.70;99.90
18309;DHT22;9280;50.276;18.650;2022-11-03T17:17:35;10.70;99.90
18309;DHT22;9280;50.276;18.650;2022-11-03T17:20:22;10.70;99.90
18309;DHT22;9280;50.276;18.650;2022-11-03T17:23:09;10.80;99.90
18309;DHT22;9280;50.276;18.650;2022-11-03T17:25:58;10.80;99.90
18309;DHT22;9280;50.276;18.650;2022-11-03T17:28:45;10.80;99.90
18309;DHT22;9280;50.276;18.650;2022-11-03T17:31:32;10.80;99.90
18309;DHT22;9280;50.276;18.650;2022-11-03T17:34:21;10.80;99.90
18309;DHT22;9280;50.276;18.650;2022-11-03T17:37:08;10.80;99.90
18309;DHT22;9280;50.276;18.650;2022-11-03T17:39:54;10.80;99.90
18309;DHT22;9280;50.276;18.650;2022-11-03T17:42:42;10.80;99.90
18309;DHT22;9280;50.276;18.650;2022-11-03T17:45:28;10.80;99.90
18309;DHT22;9280;50.276;18.650;2022-11-03T17:48:15;10.90;99.90
18309;DHT22;9280;50.276;18.650;2022-11-03T17:51:01;10.80;99.90
18309;DHT22;9280;50.276;18.650;2022-11-03T17:53:52;10.80;99.90
18309;DHT22;9280;50.276;18.650;2022-11-03T17:56:38;10.80;99.90